sensor_id;sensor_type;location;lat;lon;timestamp;temperature;humidity
360;DHT22;168;48.872;9.226;2023-01-26T00:01:17;2.40;99.90
360;DHT22;168;48.872;9.226;2023-01-26T00:03:45;2.40;99.90
360;DHT22;168;48.872;9.226;2023-01-26T00:06:15;2.20;99.90
360;DHT22;168;48.872;9.226;2023-01-26T00:08:45;2.00;98.90
360;DHT22;168;48.872;9.226;2023-01-26T00:11:15;2.00;98.00
360;DHT22;168;48.872;9.226;2023-01-26T00:13:43;2.00;97.50
360;DHT22;168;48.872;9.226;2023-01-26T00:16:12;2.00;97.40
360;DHT22;168;48.872;9.226;2023-01-26T00:18:41;2.00;98.00
360;DHT22;168;48.872;9.226;2023-01-26T00:21:12;2.10;98.10
360;DHT22;168;48.872;9.226;2023-01-26T00:23:40;2.10;97.50
360;DHT22;168;48.872;9.226;2023-01-26T00:26:09;2.10;98.90
360;DHT22;168;48.872;9.226;2023-01-26T00:28:38;2.10;97.80
360;DHT22;168;48.872;9.226;2023-01-26T00:31:07;2.10;97.70
360;DHT22;168;48.872;9.226;2023-01-26T00:33:35;2.20;98.50
360;DHT22;168;48.872;9.226;2023-01-26T00:36:05;2.30;98.70
360;DHT22;168;48.872;9.226;2023-01-26T00:38:33;2.30;99.00
360;DHT22;168;48.872;9.226;2023-01-26T00:41:01;2.30;99.50
360;DHT22;168;48.872;9.226;2023-01-26T00:43:28;2.30;99.90
360;DHT22;168;48.872;9.226;2023-01-26T00:45:57;2.20;99.90
360;DHT22;168;48.872;9.226;2023-01-26T00:48:25;2.30;99.20
360;DHT22;168;48.872;9.226;2023-01-26T00:50:52;2.30;99.80
360;DHT22;168;48.872;9.226;2023-01-26T00:53:20;2.30;99.90
360;DHT22;168;48.872;9.226;2023-01-26T00:55:47;2.30;99.80
360;DHT22;168;48.872;9.226;2023-01-26T00:58:15;2.30;99.90
360;DHT22;168;48.872;9.226;2023-01-26T01:00:44;2.40;99.90
360;DHT22;168;48.872;9.226;2023-01-26T01:03:13;2.40;99.90
360;DHT22;168;48.872;9.226;2023-01-26T01:05:40;2.40;99.90
360;DHT22;168;48.872;9.226;2023-01-26T01:08:08;2.30;99.90
360;DHT22;168;48.872;9.226;2023-01-26T01:10:35;2.40;99.90
360;DHT22;168;48.872;9.226;2023-01-26T01:13:02;2.40;99.90
360;DHT22;168;48.872;9.226;2023-01-26T01:15:30;2.50;99.90
360;DHT22;168;48.872;9.226;2023-01-26T01:17:57;2.40;99.90
360;DHT22;168;48.872;9.226;2023-01-26T01:20:26;2.40;99.90
360;DHT22;168;48.872;9.226;2023-01-26T01:22:54;2.50;99.90
360;DHT22;168;48.872;9.226;2023-01-26T01:25:22;2.30;99.90
360;DHT22;168;48.872;9.226;2023-01-26T01:27:49;2.20;99.90
360;DHT22;168;48.872;9.226;2023-01-26T01:30:17;2.20;99.90
360;DHT22;168;48.872;9.226;2023-01-26T01:32:44;2.10;99.40
360;DHT22;168;48.872;9.226;2023-01-26T01:35:14;2.10;99.00
360;DHT22;168;48.872;9.226;2023-01-26T01:37:43;2.20;99.00
360;DHT22;168;48.872;9.226;2023-01-26T01:40:12;2.30;99.30
360;DHT22;168;48.872;9.226;2023-01-26T01:42:46;2.30;99.80
360;DHT22;168;48.872;9.226;2023-01-26T01:45:43;2.30;99.90
360;DHT22;168;48.872;9.226;2023-01-26T01:48:16;2.30;99.80
360;DHT22;168;48.872;9.226;2023-01-26T01:50:45;2.20;99.40
360;DHT22;168;48.872;9.226;2023-01-26T01:53:19;2.20;99.80
360;DHT22;168;48.872;9.226;2023-01-26T01:55:51;2.20;99.40
360;DHT22;168;48.872;9.226;2023-01-26T01:58:21;2.20;99.30
360;DHT22;168;48.872;9.226;2023-01-26T02:00:49;2.20;99.90
360;DHT22;168;48.872;9.226;2023-01-26T02:03:18;2.20;99.90
360;DHT22;168;48.872;9.226;2023-01-26T02:05:53;2.20;99.80
360;DHT22;168;48.872;9.226;2023-01-26T02:08:25;2.10;99.60
360;DHT22;168;48.872;9.226;2023-01-26T02:10:55;2.10;99.00
360;DHT22;168;48.872;9.226;2023-01-26T02:13:25;2.20;99.90
360;DHT22;168;48.872;9.226;2023-01-26T02:15:53;2.20;99.90
360;DHT22;168;48.872;9.226;2023-01-26T02:18:21;2.10;99.80
360;DHT22;168;48.872;9.226;2023-01-26T02:20:52;2.00;99.40
360;DHT22;168;48.872;9.226;2023-01-26T02:23:34;2.10;99.30
360;DHT22;168;48.872;9.226;2023-01-26T02:26:06;2.20;99.90
360;DHT22;168;48.872;9.226;2023-01-26T02:28:34;2.20;99.90
360;DHT22;168;48.872;9.226;2023-01-26T02:31:02;2.20;99.70
360;DHT22;168;48.872;9.226;2023-01-26T02:33:31;2.20;99.90
360;DHT22;168;48.872;9.226;2023-01-26T02:35:59;2.20;99.90
360;DHT22;168;48.872;9.226;2023-01-26T02:38:32;2.20;99.90
360;DHT22;168;48.872;9.226;2023-01-26T02:41:07;2.20;99.90
360;DHT22;168;48.872;9.226;2023-01-26T02:43:35;2.20;99.90
360;DHT22;168;48.872;9.226;2023-01-26T02:46:01;2.30;99.90
360;DHT22;168;48.872;9.226;2023-01-26T02:48:30;2.30;99.90
360;DHT22;168;48.872;9.226;2023-01-26T02:51:14;2.30;99.90
360;DHT22;168;48.872;9.226;2023-01-26T02:53:42;2.30;99.90
360;DHT22;168;48.872;9.226;2023-01-26T02:56:11;2.30;99.90
360;DHT22;168;48.872;9.226;2023-01-26T02:58:37;2.30;99.90
360;DHT22;168;48.872;9.226;2023-01-26T03:01:05;2.20;99.90
360;DHT22;168;48.872;9.226;2023-01-26T03:03:32;2.10;99.90
360;DHT22;168;48.872;9.226;2023-01-26T03:06:08;2.00;99.90
360;DHT22;168;48.872;9.226;2023-01-26T03:08:36;1.80;99.90
360;DHT22;168;48.872;9.226;2023-01-26T03:11:05;1.70;99.70
360;DHT22;168;48.872;9.226;2023-01-26T03:13:34;1.70;99.10
360;DHT22;168;48.872;9.226;2023-01-26T03:16:06;1.60;98.60
360;DHT22;168;48.872;9.226;2023-01-26T03:18:34;1.60;98.70
360;DHT22;168;48.872;9.226;2023-01-26T03:21:20;1.50;98.10
360;DHT22;168;48.872;9.226;2023-01-26T03:24:05;1.60;98.40
360;DHT22;168;48.872;9.226;2023-01-26T03:26:50;1.80;99.20
360;DHT22;168;48.872;9.226;2023-01-26T03:29:36;1.70;99.00
360;DHT22;168;48.872;9.226;2023-01-26T03:32:04;1.60;98.40
360;DHT22;168;48.872;9.226;2023-01-26T03:34:31;1.70;98.60
360;DHT22;168;48.872;9.226;2023-01-26T03:36:59;1.60;98.50
360;DHT22;168;48.872;9.226;2023-01-26T03:39:26;1.60;98.60
360;DHT22;168;48.872;9.226;2023-01-26T03:42:11;1.50;98.40
360;DHT22;168;48.872;9.226;2023-01-26T03:44:58;1.40;97.00
360;DHT22;168;48.872;9.226;2023-01-26T03:47:42;1.40;96.10
360;DHT22;168;48.872;9.226;2023-01-26T03:50:27;1.70;96.10
360;DHT22;168;48.872;9.226;2023-01-26T03:53:13;1.80;99.60
360;DHT22;168;48.872;9.226;2023-01-26T03:55:58;1.80;99.70
360;DHT22;168;48.872;9.226;2023-01-26T03:58:43;1.70;99.40
360;DHT22;168;48.872;9.226;2023-01-26T04:01:12;1.60;99.00
360;DHT22;168;48.872;9.226;2023-01-26T04:03:46;1.50;98.40
360;DHT22;168;48.872;9.226;2023-01-26T04:06:31;1.30;97.40
360;DHT22;168;48.872;9.226;2023-01-26T04:09:16;1.30;96.70
360;DHT22;168;48.872;9.226;2023-01-26T04:11:44;1.20;96.00
360;DHT22;168;48.872;9.226;2023-01-26T04:14:12;1.10;95.80
360;DHT22;168;48.872;9.226;2023-01-26T04:16:59;1.20;95.40
360;DHT22;168;48.872;9.226;2023-01-26T04:19:44;1.10;95.60
360;DHT22;168;48.872;9.226;2023-01-26T04:22:30;1.10;95.00
360;DHT22;168;48.872;9.226;2023-01-26T04:24:57;1.10;94.60
360;DHT22;168;48.872;9.226;2023-01-26T04:27:24;1.20;94.80
360;DHT22;168;48.872;9.226;2023-01-26T04:29:52;1.20;95.20
360;DHT22;168;48.872;9.226;2023-01-26T04:32:20;1.30;95.80
360;DHT22;168;48.872;9.226;2023-01-26T04:34:48;1.20;96.10
360;DHT22;168;48.872;9.226;2023-01-26T04:37:16;1.20;96.10
360;DHT22;168;48.872;9.226;2023-01-26T04:39:43;1.10;95.50
360;DHT22;168;48.872;9.226;2023-01-26T04:42:11;1.10;94.90
360;DHT22;168;48.872;9.226;2023-01-26T04:44:39;1.20;94.00
360;DHT22;168;48.872;9.226;2023-01-26T04:47:06;1.30;94.80
360;DHT22;168;48.872;9.226;2023-01-26T04:49:35;1.40;96.30
360;DHT22;168;48.872;9.226;2023-01-26T04:52:02;1.40;96.30
360;DHT22;168;48.872;9.226;2023-01-26T04:54:30;1.30;96.90
360;DHT22;168;48.872;9.226;2023-01-26T04:56:57;1.10;96.90
360;DHT22;168;48.872;9.226;2023-01-26T04:59:25;1.00;95.30
360;DHT22;168;48.872;9.226;2023-01-26T05:01:53;1.00;94.30
360;DHT22;168;48.872;9.226;2023-01-26T05:04:20;0.90;94.10
360;DHT22;168;48.872;9.226;2023-01-26T05:06:49;0.90;93.50
360;DHT22;168;48.872;9.226;2023-01-26T05:09:16;1.00;92.70
360;DHT22;168;48.872;9.226;2023-01-26T05:11:44;1.10;92.80
360;DHT22;168;48.872;9.226;2023-01-26T05:14:11;1.20;94.00
360;DHT22;168;48.872;9.226;2023-01-26T05:16:43;1.20;95.80
360;DHT22;168;48.872;9.226;2023-01-26T05:19:11;1.00;95.40
360;DHT22;168;48.872;9.226;2023-01-26T05:21:39;0.90;94.30
360;DHT22;168;48.872;9.226;2023-01-26T05:24:11;0.90;93.30
360;DHT22;168;48.872;9.226;2023-01-26T05:30:56;0.80;91.90
360;DHT22;168;48.872;9.226;2023-01-26T05:33:31;0.70;91.30
360;DHT22;168;48.872;9.226;2023-01-26T05:36:04;0.70;90.90
360;DHT22;168;48.872;9.226;2023-01-26T05:38:33;0.70;90.40
360;DHT22;168;48.872;9.226;2023-01-26T05:41:02;0.60;90.70
360;DHT22;168;48.872;9.226;2023-01-26T05:43:30;0.60;91.10
360;DHT22;168;48.872;9.226;2023-01-26T05:46:00;0.60;90.80
360;DHT22;168;48.872;9.226;2023-01-26T05:48:27;0.60;90.00
360;DHT22;168;48.872;9.226;2023-01-26T05:50:55;0.60;90.30
360;DHT22;168;48.872;9.226;2023-01-26T05:53:25;0.60;90.20
360;DHT22;168;48.872;9.226;2023-01-26T05:55:53;0.60;90.60
360;DHT22;168;48.872;9.226;2023-01-26T05:58:22;0.60;91.80
360;DHT22;168;48.872;9.226;2023-01-26T06:00:51;0.60;91.00
360;DHT22;168;48.872;9.226;2023-01-26T06:03:19;0.60;90.40
360;DHT22;168;48.872;9.226;2023-01-26T06:05:51;0.70;90.60
360;DHT22;168;48.872;9.226;2023-01-26T06:08:21;0.80;91.20
360;DHT22;168;48.872;9.226;2023-01-26T06:10:58;0.80;91.60
360;DHT22;168;48.872;9.226;2023-01-26T06:13:27;0.90;91.70
360;DHT22;168;48.872;9.226;2023-01-26T06:15:55;1.00;92.00
360;DHT22;168;48.872;9.226;2023-01-26T06:18:26;1.00;92.80
360;DHT22;168;48.872;9.226;2023-01-26T06:20:57;1.00;95.00
360;DHT22;168;48.872;9.226;2023-01-26T06:23:25;0.90;95.50
360;DHT22;168;48.872;9.226;2023-01-26T06:25:52;0.90;95.20
360;DHT22;168;48.872;9.226;2023-01-26T06:28:24;0.80;95.40
360;DHT22;168;48.872;9.226;2023-01-26T06:31:03;0.90;94.60
360;DHT22;168;48.872;9.226;2023-01-26T06:33:35;0.90;94.40
360;DHT22;168;48.872;9.226;2023-01-26T06:36:02;1.00;95.50
360;DHT22;168;48.872;9.226;2023-01-26T06:38:30;1.00;96.20
360;DHT22;168;48.872;9.226;2023-01-26T06:40:58;1.00;95.60
360;DHT22;168;48.872;9.226;2023-01-26T06:43:28;1.10;95.50
360;DHT22;168;48.872;9.226;2023-01-26T06:46:03;1.10;96.30
360;DHT22;168;48.872;9.226;2023-01-26T06:48:33;1.10;97.20
360;DHT22;168;48.872;9.226;2023-01-26T06:51:04;1.20;97.00
360;DHT22;168;48.872;9.226;2023-01-26T06:53:53;1.10;97.10
360;DHT22;168;48.872;9.226;2023-01-26T06:56:21;1.20;97.80
360;DHT22;168;48.872;9.226;2023-01-26T06:58:49;1.20;98.50
360;DHT22;168;48.872;9.226;2023-01-26T07:01:20;1.10;97.80
360;DHT22;168;48.872;9.226;2023-01-26T07:03:48;1.00;99.20
360;DHT22;168;48.872;9.226;2023-01-26T07:06:15;1.00;98.50
360;DHT22;168;48.872;9.226;2023-01-26T07:08:43;0.90;97.80
360;DHT22;168;48.872;9.226;2023-01-26T07:11:11;0.90;97.20
360;DHT22;168;48.872;9.226;2023-01-26T07:13:38;0.90;97.80
360;DHT22;168;48.872;9.226;2023-01-26T07:16:08;0.90;97.90
360;DHT22;168;48.872;9.226;2023-01-26T07:18:37;0.90;98.00
360;DHT22;168;48.872;9.226;2023-01-26T07:21:06;0.90;98.80
360;DHT22;168;48.872;9.226;2023-01-26T07:23:34;0.70;99.10
360;DHT22;168;48.872;9.226;2023-01-26T07:26:01;0.70;98.40
360;DHT22;168;48.872;9.226;2023-01-26T07:28:29;0.70;98.30
360;DHT22;168;48.872;9.226;2023-01-26T07:30:59;0.80;99.30
360;DHT22;168;48.872;9.226;2023-01-26T07:33:27;0.80;99.20
360;DHT22;168;48.872;9.226;2023-01-26T07:35:57;0.70;98.70
360;DHT22;168;48.872;9.226;2023-01-26T07:38:25;0.80;98.50
360;DHT22;168;48.872;9.226;2023-01-26T07:40:54;0.80;98.60
360;DHT22;168;48.872;9.226;2023-01-26T07:43:22;0.80;98.70
360;DHT22;168;48.872;9.226;2023-01-26T07:45:50;0.90;98.00
360;DHT22;168;48.872;9.226;2023-01-26T07:48:21;1.00;98.80
360;DHT22;168;48.872;9.226;2023-01-26T07:50:49;1.00;99.20
360;DHT22;168;48.872;9.226;2023-01-26T07:53:19;1.10;99.40
360;DHT22;168;48.872;9.226;2023-01-26T07:55:48;1.10;99.90
360;DHT22;168;48.872;9.226;2023-01-26T07:58:16;1.10;99.90
360;DHT22;168;48.872;9.226;2023-01-26T08:00:46;1.00;99.90
360;DHT22;168;48.872;9.226;2023-01-26T08:03:13;0.90;99.90
360;DHT22;168;48.872;9.226;2023-01-26T08:05:42;0.90;99.90
360;DHT22;168;48.872;9.226;2023-01-26T08:08:10;1.00;99.90
360;DHT22;168;48.872;9.226;2023-01-26T08:10:39;1.00;99.90
360;DHT22;168;48.872;9.226;2023-01-26T08:13:06;1.10;99.90
360;DHT22;168;48.872;9.226;2023-01-26T08:15:34;1.20;99.90
360;DHT22;168;48.872;9.226;2023-01-26T08:18:03;1.30;99.90
360;DHT22;168;48.872;9.226;2023-01-26T08:20:31;1.30;99.90
360;DHT22;168;48.872;9.226;2023-01-26T08:23:03;1.50;99.90
360;DHT22;168;48.872;9.226;2023-01-26T08:25:32;1.50;99.90
360;DHT22;168;48.872;9.226;2023-01-26T08:28:01;1.50;99.90
360;DHT22;168;48.872;9.226;2023-01-26T08:30:31;1.60;99.90
360;DHT22;168;48.872;9.226;2023-01-26T08:32:58;1.80;99.90
360;DHT22;168;48.872;9.226;2023-01-26T08:35:26;1.80;99.90
360;DHT22;168;48.872;9.226;2023-01-26T08:37:53;1.80;99.90
360;DHT22;168;48.872;9.226;2023-01-26T08:40:27;1.70;99.90
360;DHT22;168;48.872;9.226;2023-01-26T08:42:55;1.80;99.90
360;DHT22;168;48.872;9.226;2023-01-26T08:45:23;1.80;99.90
360;DHT22;168;48.872;9.226;2023-01-26T08:47:51;1.70;99.90
360;DHT22;168;48.872;9.226;2023-01-26T08:50:18;1.70;99.90
360;DHT22;168;48.872;9.226;2023-01-26T08:52:46;1.70;99.90
360;DHT22;168;48.872;9.226;2023-01-26T08:55:14;1.60;99.90
360;DHT22;168;48.872;9.226;2023-01-26T08:57:41;1.40;99.90
360;DHT22;168;48.872;9.226;2023-01-26T09:00:11;1.30;99.90
360;DHT22;168;48.872;9.226;2023-01-26T09:02:40;1.30;99.90
360;DHT22;168;48.872;9.226;2023-01-26T09:05:10;1.30;99.90
360;DHT22;168;48.872;9.226;2023-01-26T09:07:38;1.30;99.90
360;DHT22;168;48.872;9.226;2023-01-26T09:10:12;1.40;99.90
360;DHT22;168;48.872;9.226;2023-01-26T09:12:39;1.40;99.90
360;DHT22;168;48.872;9.226;2023-01-26T09:15:08;1.40;99.90
360;DHT22;168;48.872;9.226;2023-01-26T09:17:36;1.50;99.90
360;DHT22;168;48.872;9.226;2023-01-26T09:20:06;1.70;99.90
360;DHT22;168;48.872;9.226;2023-01-26T09:22:34;1.70;99.90
360;DHT22;168;48.872;9.226;2023-01-26T09:25:12;1.60;99.90
360;DHT22;168;48.872;9.226;2023-01-26T09:27:47;1.60;99.90
360;DHT22;168;48.872;9.226;2023-01-26T09:30:16;1.70;99.90
360;DHT22;168;48.872;9.226;2023-01-26T09:32:44;1.70;99.90
360;DHT22;168;48.872;9.226;2023-01-26T09:35:13;1.80;99.90
360;DHT22;168;48.872;9.226;2023-01-26T09:37:41;1.80;99.90
360;DHT22;168;48.872;9.226;2023-01-26T09:40:15;1.70;99.90
360;DHT22;168;48.872;9.226;2023-01-26T09:42:55;1.70;99.90
360;DHT22;168;48.872;9.226;2023-01-26T09:45:28;1.70;99.90
360;DHT22;168;48.872;9.226;2023-01-26T09:48:13;1.70;99.90
360;DHT22;168;48.872;9.226;2023-01-26T09:50:50;1.70;99.90
360;DHT22;168;48.872;9.226;2023-01-26T09:53:24;1.70;99.90
360;DHT22;168;48.872;9.226;2023-01-26T09:55:54;1.60;99.90
360;DHT22;168;48.872;9.226;2023-01-26T09:58:29;1.60;99.90
360;DHT22;168;48.872;9.226;2023-01-26T10:01:00;1.40;99.90
360;DHT22;168;48.872;9.226;2023-01-26T10:03:32;1.30;99.90
360;DHT22;168;48.872;9.226;2023-01-26T10:06:12;1.30;99.90
360;DHT22;168;48.872;9.226;2023-01-26T10:08:41;1.40;99.90
360;DHT22;168;48.872;9.226;2023-01-26T10:11:15;1.30;99.90
360;DHT22;168;48.872;9.226;2023-01-26T10:13:50;1.20;99.90
360;DHT22;168;48.872;9.226;2023-01-26T10:16:20;1.10;99.90
360;DHT22;168;48.872;9.226;2023-01-26T10:18:57;1.10;99.90
360;DHT22;168;48.872;9.226;2023-01-26T10:24:58;1.00;99.90
360;DHT22;168;48.872;9.226;2023-01-26T10:27:27;1.00;99.90
360;DHT22;168;48.872;9.226;2023-01-26T10:29:54;1.10;99.90
360;DHT22;168;48.872;9.226;2023-01-26T10:32:21;1.10;99.90
360;DHT22;168;48.872;9.226;2023-01-26T10:34:50;1.10;99.90
360;DHT22;168;48.872;9.226;2023-01-26T10:37:20;1.10;99.90
360;DHT22;168;48.872;9.226;2023-01-26T10:40:00;1.10;99.90
360;DHT22;168;48.872;9.226;2023-01-26T10:42:30;1.10;99.90
360;DHT22;168;48.872;9.226;2023-01-26T10:44:58;1.00;99.90
360;DHT22;168;48.872;9.226;2023-01-26T10:47:27;1.00;99.90
360;DHT22;168;48.872;9.226;2023-01-26T10:50:14;1.00;99.90
360;DHT22;168;48.872;9.226;2023-01-26T10:52:56;0.90;99.90
360;DHT22;168;48.872;9.226;2023-01-26T10:55:26;1.00;99.90
360;DHT22;168;48.872;9.226;2023-01-26T10:57:53;1.00;99.90
360;DHT22;168;48.872;9.226;2023-01-26T11:00:26;1.00;99.90
360;DHT22;168;48.872;9.226;2023-01-26T11:03:03;1.10;99.90
360;DHT22;168;48.872;9.226;2023-01-26T11:05:31;1.10;99.90
360;DHT22;168;48.872;9.226;2023-01-26T11:07:58;1.20;99.90
360;DHT22;168;48.872;9.226;2023-01-26T11:10:34;1.20;99.90
360;DHT22;168;48.872;9.226;2023-01-26T11:13:10;1.10;99.90
360;DHT22;168;48.872;9.226;2023-01-26T11:15:40;1.20;99.90
360;DHT22;168;48.872;9.226;2023-01-26T11:18:15;1.30;99.90
360;DHT22;168;48.872;9.226;2023-01-26T11:20:52;1.30;99.90
360;DHT22;168;48.872;9.226;2023-01-26T11:23:32;1.20;99.90
360;DHT22;168;48.872;9.226;2023-01-26T11:26:25;1.20;99.90
360;DHT22;168;48.872;9.226;2023-01-26T11:29:11;1.20;99.90
360;DHT22;168;48.872;9.226;2023-01-26T11:31:53;1.10;99.90
360;DHT22;168;48.872;9.226;2023-01-26T11:34:29;1.20;99.90
360;DHT22;168;48.872;9.226;2023-01-26T11:37:17;1.20;99.90
360;DHT22;168;48.872;9.226;2023-01-26T11:39:54;1.10;99.90
360;DHT22;168;48.872;9.226;2023-01-26T11:42:32;1.20;99.90
360;DHT22;168;48.872;9.226;2023-01-26T11:45:13;1.20;99.90
360;DHT22;168;48.872;9.226;2023-01-26T11:47:54;1.20;99.90
360;DHT22;168;48.872;9.226;2023-01-26T11:50:29;1.10;99.90
360;DHT22;168;48.872;9.226;2023-01-26T11:53:13;1.10;99.90
360;DHT22;168;48.872;9.226;2023-01-26T11:55:53;1.10;99.90
360;DHT22;168;48.872;9.226;2023-01-26T11:58:30;1.10;99.90
360;DHT22;168;48.872;9.226;2023-01-26T12:01:00;1.00;99.90
360;DHT22;168;48.872;9.226;2023-01-26T12:03:34;0.90;99.90
360;DHT22;168;48.872;9.226;2023-01-26T12:06:06;0.90;99.90
360;DHT22;168;48.872;9.226;2023-01-26T12:08:38;0.90;99.90
360;DHT22;168;48.872;9.226;2023-01-26T12:11:09;1.00;99.90
360;DHT22;168;48.872;9.226;2023-01-26T12:14:03;1.00;99.90
360;DHT22;168;48.872;9.226;2023-01-26T12:16:39;1.00;99.90
360;DHT22;168;48.872;9.226;2023-01-26T12:19:20;1.10;99.90
360;DHT22;168;48.872;9.226;2023-01-26T12:21:53;1.10;99.90
360;DHT22;168;48.872;9.226;2023-01-26T12:24:28;1.30;99.90
360;DHT22;168;48.872;9.226;2023-01-26T12:27:01;1.40;99.90
360;DHT22;168;48.872;9.226;2023-01-26T12:29:39;1.50;99.90
360;DHT22;168;48.872;9.226;2023-01-26T12:32:11;1.60;99.90
360;DHT22;168;48.872;9.226;2023-01-26T12:34:39;1.60;99.90
360;DHT22;168;48.872;9.226;2023-01-26T12:37:22;1.60;99.90
360;DHT22;168;48.872;9.226;2023-01-26T12:39:57;1.50;99.90
360;DHT22;168;48.872;9.226;2023-01-26T12:42:37;1.60;99.90
360;DHT22;168;48.872;9.226;2023-01-26T12:45:10;1.50;99.90
360;DHT22;168;48.872;9.226;2023-01-26T12:47:41;1.50;99.90
360;DHT22;168;48.872;9.226;2023-01-26T12:50:14;1.40;99.90
360;DHT22;168;48.872;9.226;2023-01-26T12:52:50;1.40;99.90
360;DHT22;168;48.872;9.226;2023-01-26T12:55:21;1.30;99.90
360;DHT22;168;48.872;9.226;2023-01-26T12:57:53;1.30;99.90
360;DHT22;168;48.872;9.226;2023-01-26T13:00:24;1.30;99.90
360;DHT22;168;48.872;9.226;2023-01-26T13:02:56;1.40;99.90
360;DHT22;168;48.872;9.226;2023-01-26T13:05:27;1.50;99.90
360;DHT22;168;48.872;9.226;2023-01-26T13:07:55;1.70;99.90
360;DHT22;168;48.872;9.226;2023-01-26T13:10:28;1.80;99.90
360;DHT22;168;48.872;9.226;2023-01-26T13:12:58;1.70;99.90
360;DHT22;168;48.872;9.226;2023-01-26T13:15:28;1.60;99.90
360;DHT22;168;48.872;9.226;2023-01-26T13:17:58;1.60;99.90
360;DHT22;168;48.872;9.226;2023-01-26T13:20:49;1.60;99.90
360;DHT22;168;48.872;9.226;2023-01-26T13:23:40;1.70;99.90
360;DHT22;168;48.872;9.226;2023-01-26T13:26:19;1.70;99.80
360;DHT22;168;48.872;9.226;2023-01-26T13:28:47;1.70;99.90
360;DHT22;168;48.872;9.226;2023-01-26T13:31:30;1.70;99.90
360;DHT22;168;48.872;9.226;2023-01-26T13:34:00;1.80;99.90
360;DHT22;168;48.872;9.226;2023-01-26T13:36:34;1.80;99.80
360;DHT22;168;48.872;9.226;2023-01-26T13:39:08;1.70;99.90
360;DHT22;168;48.872;9.226;2023-01-26T13:41:44;1.60;99.90
360;DHT22;168;48.872;9.226;2023-01-26T13:44:15;1.80;99.90
360;DHT22;168;48.872;9.226;2023-01-26T13:46:49;2.00;99.90
360;DHT22;168;48.872;9.226;2023-01-26T13:49:25;2.00;99.80
360;DHT22;168;48.872;9.226;2023-01-26T13:51:53;2.20;99.80
360;DHT22;168;48.872;9.226;2023-01-26T13:54:21;2.30;98.50
360;DHT22;168;48.872;9.226;2023-01-26T13:57:00;2.20;98.80
360;DHT22;168;48.872;9.226;2023-01-26T13:59:28;2.30;98.20
360;DHT22;168;48.872;9.226;2023-01-26T14:01:57;2.40;98.30
360;DHT22;168;48.872;9.226;2023-01-26T14:04:26;2.40;98.20
360;DHT22;168;48.872;9.226;2023-01-26T14:06:57;2.40;98.20
360;DHT22;168;48.872;9.226;2023-01-26T14:09:27;2.30;97.30
360;DHT22;168;48.872;9.226;2023-01-26T14:11:58;2.10;98.00
360;DHT22;168;48.872;9.226;2023-01-26T14:14:28;2.10;98.30
360;DHT22;168;48.872;9.226;2023-01-26T14:16:59;2.00;98.20
360;DHT22;168;48.872;9.226;2023-01-26T14:19:27;1.90;99.10
360;DHT22;168;48.872;9.226;2023-01-26T14:21:56;1.80;99.50
360;DHT22;168;48.872;9.226;2023-01-26T14:24:29;1.80;99.80
360;DHT22;168;48.872;9.226;2023-01-26T14:26:57;1.70;99.90
360;DHT22;168;48.872;9.226;2023-01-26T14:29:27;1.70;99.90
360;DHT22;168;48.872;9.226;2023-01-26T14:31:56;1.70;99.90
360;DHT22;168;48.872;9.226;2023-01-26T14:34:27;1.70;99.80
360;DHT22;168;48.872;9.226;2023-01-26T14:37:05;1.70;99.50
360;DHT22;168;48.872;9.226;2023-01-26T14:39:33;1.90;98.90
360;DHT22;168;48.872;9.226;2023-01-26T14:42:00;1.90;99.00
360;DHT22;168;48.872;9.226;2023-01-26T14:44:29;1.90;99.20
360;DHT22;168;48.872;9.226;2023-01-26T14:46:59;2.00;99.30
360;DHT22;168;48.872;9.226;2023-01-26T14:49:36;2.10;98.50
360;DHT22;168;48.872;9.226;2023-01-26T14:52:15;2.00;98.50
360;DHT22;168;48.872;9.226;2023-01-26T14:54:43;1.90;99.40
360;DHT22;168;48.872;9.226;2023-01-26T14:57:18;2.00;99.90
360;DHT22;168;48.872;9.226;2023-01-26T14:59:48;2.10;99.60
360;DHT22;168;48.872;9.226;2023-01-26T15:02:21;2.10;99.30
360;DHT22;168;48.872;9.226;2023-01-26T15:04:54;2.20;98.70
360;DHT22;168;48.872;9.226;2023-01-26T15:07:36;2.10;98.70
360;DHT22;168;48.872;9.226;2023-01-26T15:10:25;2.10;99.10
360;DHT22;168;48.872;9.226;2023-01-26T15:12:59;2.00;98.90
360;DHT22;168;48.872;9.226;2023-01-26T15:15:28;2.10;99.00
360;DHT22;168;48.872;9.226;2023-01-26T15:18:16;2.00;99.20
360;DHT22;168;48.872;9.226;2023-01-26T15:20:51;1.90;99.60
360;DHT22;168;48.872;9.226;2023-01-26T15:23:29;2.00;99.70
360;DHT22;168;48.872;9.226;2023-01-26T15:26:04;2.00;99.50
360;DHT22;168;48.872;9.226;2023-01-26T15:28:32;1.90;99.60
360;DHT22;168;48.872;9.226;2023-01-26T15:31:00;1.90;99.80
360;DHT22;168;48.872;9.226;2023-01-26T15:33:38;2.00;99.70
360;DHT22;168;48.872;9.226;2023-01-26T15:36:23;2.20;99.40
360;DHT22;168;48.872;9.226;2023-01-26T15:38:57;2.20;99.10
360;DHT22;168;48.872;9.226;2023-01-26T15:41:25;2.20;99.10
360;DHT22;168;48.872;9.226;2023-01-26T15:43:53;2.20;98.70
360;DHT22;168;48.872;9.226;2023-01-26T15:46:20;2.20;98.30
360;DHT22;168;48.872;9.226;2023-01-26T15:48:48;2.10;98.40
360;DHT22;168;48.872;9.226;2023-01-26T15:51:16;2.10;98.90
360;DHT22;168;48.872;9.226;2023-01-26T15:53:44;2.10;98.80
360;DHT22;168;48.872;9.226;2023-01-26T15:56:12;2.10;98.90
360;DHT22;168;48.872;9.226;2023-01-26T15:58:40;2.00;99.10
360;DHT22;168;48.872;9.226;2023-01-26T16:01:12;1.90;99.50
360;DHT22;168;48.872;9.226;2023-01-26T16:03:40;1.90;99.90
360;DHT22;168;48.872;9.226;2023-01-26T16:06:18;2.00;99.80
360;DHT22;168;48.872;9.226;2023-01-26T16:08:45;2.10;99.60
360;DHT22;168;48.872;9.226;2023-01-26T16:11:13;2.10;99.60
360;DHT22;168;48.872;9.226;2023-01-26T16:13:40;2.20;99.70
360;DHT22;168;48.872;9.226;2023-01-26T16:16:10;2.40;99.10
360;DHT22;168;48.872;9.226;2023-01-26T16:18:38;2.40;98.60
360;DHT22;168;48.872;9.226;2023-01-26T16:21:15;2.40;98.90
360;DHT22;168;48.872;9.226;2023-01-26T16:23:45;2.20;99.30
360;DHT22;168;48.872;9.226;2023-01-26T16:26:14;2.30;99.70
360;DHT22;168;48.872;9.226;2023-01-26T16:28:42;2.20;99.70
360;DHT22;168;48.872;9.226;2023-01-26T16:31:15;2.20;99.90
360;DHT22;168;48.872;9.226;2023-01-26T16:33:43;2.30;99.90
360;DHT22;168;48.872;9.226;2023-01-26T16:36:12;2.30;99.70
360;DHT22;168;48.872;9.226;2023-01-26T16:38:40;2.40;99.60
360;DHT22;168;48.872;9.226;2023-01-26T16:41:16;2.40;99.50
360;DHT22;168;48.872;9.226;2023-01-26T16:43:45;2.40;99.80
360;DHT22;168;48.872;9.226;2023-01-26T16:46:12;2.50;99.20
360;DHT22;168;48.872;9.226;2023-01-26T16:48:40;2.50;99.20
360;DHT22;168;48.872;9.226;2023-01-26T16:51:14;2.40;99.60
360;DHT22;168;48.872;9.226;2023-01-26T16:53:43;2.30;99.90
360;DHT22;168;48.872;9.226;2023-01-26T16:56:13;2.30;99.90
360;DHT22;168;48.872;9.226;2023-01-26T16:58:40;2.40;99.90
360;DHT22;168;48.872;9.226;2023-01-26T17:01:16;2.50;99.90
360;DHT22;168;48.872;9.226;2023-01-26T17:03:44;2.70;99.80
360;DHT22;168;48.872;9.226;2023-01-26T17:06:12;2.80;98.60
360;DHT22;168;48.872;9.226;2023-01-26T17:08:39;2.80;98.70
360;DHT22;168;48.872;9.226;2023-01-26T17:11:15;2.60;99.00
360;DHT22;168;48.872;9.226;2023-01-26T17:13:43;2.60;99.80
360;DHT22;168;48.872;9.226;2023-01-26T17:16:14;2.50;99.70
360;DHT22;168;48.872;9.226;2023-01-26T17:18:42;2.30;99.90
360;DHT22;168;48.872;9.226;2023-01-26T17:21:11;2.20;99.90
360;DHT22;168;48.872;9.226;2023-01-26T17:23:39;2.10;99.90
360;DHT22;168;48.872;9.226;2023-01-26T17:26:10;2.00;99.90
360;DHT22;168;48.872;9.226;2023-01-26T17:28:40;1.90;99.90